sensor_id;sensor_type;location;lat;lon;timestamp;pressure;altitude;pressure_sealevel;temperature;humidity
34983;BME280;21187;50.976;13.720;2024-01-16T00:00:46;96783.88;;;2.20;59.95
34983;BME280;21187;50.976;13.720;2024-01-16T00:05:48;96786.09;;;2.17;59.36
34983;BME280;21187;50.976;13.720;2024-01-16T00:10:50;96786.09;;;2.17;59.64
34983;BME280;21187;50.976;13.720;2024-01-16T00:15:52;96801.81;;;2.19;58.95
34983;BME280;21187;50.976;13.720;2024-01-16T00:20:54;96803.03;;;2.22;58.75
34983;BME280;21187;50.976;13.720;2024-01-16T00:25:56;96818.41;;;2.25;58.70
34983;BME280;21187;50.976;13.720;2024-01-16T00:30:58;96819.13;;;2.13;59.54
34983;BME280;21187;50.976;13.720;2024-01-16T00:36:00;96822.53;;;2.01;59.95
34983;BME280;21187;50.976;13.720;2024-01-16T00:41:02;96820.25;;;1.91;60.74
34983;BME280;21187;50.976;13.720;2024-01-16T00:46:04;96826.59;;;1.86;61.25
34983;BME280;21187;50.976;13.720;2024-01-16T00:51:06;96826.88;;;1.85;61.69
34983;BME280;21187;50.976;13.720;2024-01-16T00:56:08;96822.44;;;1.89;61.67
34983;BME280;21187;50.976;13.720;2024-01-16T01:01:10;96826.50;;;1.95;61.22
34983;BME280;21187;50.976;13.720;2024-01-16T01:06:12;96841.22;;;2.01;61.37
34983;BME280;21187;50.976;13.720;2024-01-16T01:11:14;96842.91;;;2.06;60.69
34983;BME280;21187;50.976;13.720;2024-01-16T01:16:16;96853.28;;;2.07;60.30
34983;BME280;21187;50.976;13.720;2024-01-16T01:21:18;96873.50;;;2.08;60.02
34983;BME280;21187;50.976;13.720;2024-01-16T01:26:20;96870.41;;;2.06;60.05
34983;BME280;21187;50.976;13.720;2024-01-16T01:31:22;96870.47;;;1.97;60.68
34983;BME280;21187;50.976;13.720;2024-01-16T01:36:24;96866.72;;;1.90;61.21
34983;BME280;21187;50.976;13.720;2024-01-16T01:41:26;96889.00;;;1.94;61.36
34983;BME280;21187;50.976;13.720;2024-01-16T01:46:29;96879.00;;;1.91;61.50
34983;BME280;21187;50.976;13.720;2024-01-16T01:51:34;96883.09;;;1.88;61.78
34983;BME280;21187;50.976;13.720;2024-01-16T01:56:36;96883.56;;;1.90;62.07
34983;BME280;21187;50.976;13.720;2024-01-16T02:01:38;96897.28;;;2.01;61.32
34983;BME280;21187;50.976;13.720;2024-01-16T02:06:44;96895.69;;;2.09;61.10
34983;BME280;21187;50.976;13.720;2024-01-16T02:11:46;96910.72;;;2.13;60.64
34983;BME280;21187;50.976;13.720;2024-01-16T02:16:48;96928.31;;;2.14;60.64
34983;BME280;21187;50.976;13.720;2024-01-16T02:21:53;96922.31;;;2.17;60.53
34983;BME280;21187;50.976;13.720;2024-01-16T02:27:00;96936.06;;;2.07;61.09
34983;BME280;21187;50.976;13.720;2024-01-16T02:32:02;96939.38;;;2.04;61.95
34983;BME280;21187;50.976;13.720;2024-01-16T02:37:05;96933.13;;;2.00;62.12
34983;BME280;21187;50.976;13.720;2024-01-16T02:42:07;96933.94;;;1.92;62.79
34983;BME280;21187;50.976;13.720;2024-01-16T02:47:08;96937.41;;;1.92;62.90
34983;BME280;21187;50.976;13.720;2024-01-16T02:52:10;96953.38;;;2.01;62.37
34983;BME280;21187;50.976;13.720;2024-01-16T02:57:12;96965.44;;;2.07;62.42
34983;BME280;21187;50.976;13.720;2024-01-16T03:02:14;96954.53;;;2.12;61.95
34983;BME280;21187;50.976;13.720;2024-01-16T03:07:16;96961.31;;;2.10;62.08
34983;BME280;21187;50.976;13.720;2024-01-16T03:12:18;96969.47;;;2.13;62.20
34983;BME280;21187;50.976;13.720;2024-01-16T03:17:20;96985.06;;;2.11;62.58
34983;BME280;21187;50.976;13.720;2024-01-16T03:22:22;96970.84;;;2.20;62.70
34983;BME280;21187;50.976;13.720;2024-01-16T03:27:24;96987.13;;;2.27;62.26
34983;BME280;21187;50.976;13.720;2024-01-16T03:32:26;96985.19;;;2.36;62.00
34983;BME280;21187;50.976;13.720;2024-01-16T03:37:28;96993.69;;;2.38;61.89
34983;BME280;21187;50.976;13.720;2024-01-16T03:42:30;96987.69;;;2.41;61.25
34983;BME280;21187;50.976;13.720;2024-01-16T03:47:32;96991.91;;;2.42;61.12
34983;BME280;21187;50.976;13.720;2024-01-16T03:52:34;96996.94;;;2.44;60.67
34983;BME280;21187;50.976;13.720;2024-01-16T03:57:35;96997.41;;;2.46;60.73
34983;BME280;21187;50.976;13.720;2024-01-16T04:02:38;96999.94;;;2.42;60.24
34983;BME280;21187;50.976;13.720;2024-01-16T04:07:40;97008.72;;;2.43;59.55
34983;BME280;21187;50.976;13.720;2024-01-16T04:12:42;97015.31;;;2.45;59.94
34983;BME280;21187;50.976;13.720;2024-01-16T04:17:44;97018.44;;;2.47;59.34
34983;BME280;21187;50.976;13.720;2024-01-16T04:22:46;97031.34;;;2.45;58.50
34983;BME280;21187;50.976;13.720;2024-01-16T04:27:48;97036.06;;;2.48;59.13
34983;BME280;21187;50.976;13.720;2024-01-16T04:32:50;97052.09;;;2.48;58.96
34983;BME280;21187;50.976;13.720;2024-01-16T04:37:52;97045.53;;;2.37;59.47
34983;BME280;21187;50.976;13.720;2024-01-16T04:42:54;97052.19;;;2.31;59.88
34983;BME280;21187;50.976;13.720;2024-01-16T04:47:55;97055.69;;;2.23;60.46
34983;BME280;21187;50.976;13.720;2024-01-16T04:52:58;97064.16;;;2.25;60.38
34983;BME280;21187;50.976;13.720;2024-01-16T04:58:03;97064.44;;;2.32;59.79
34983;BME280;21187;50.976;13.720;2024-01-16T05:03:05;97068.72;;;2.24;60.28
34983;BME280;21187;50.976;13.720;2024-01-16T05:08:07;97064.50;;;2.23;60.43
34983;BME280;21187;50.976;13.720;2024-01-16T05:13:09;97069.78;;;2.32;60.15
34983;BME280;21187;50.976;13.720;2024-01-16T05:18:13;97066.47;;;2.35;59.69
34983;BME280;21187;50.976;13.720;2024-01-16T05:23:15;97063.16;;;2.38;58.69
34983;BME280;21187;50.976;13.720;2024-01-16T05:28:17;97074.44;;;2.44;57.93
34983;BME280;21187;50.976;13.720;2024-01-16T05:33:19;97080.38;;;2.49;57.32
34983;BME280;21187;50.976;13.720;2024-01-16T05:38:22;97080.38;;;2.49;56.75
34983;BME280;21187;50.976;13.720;2024-01-16T05:43:24;97084.59;;;2.50;56.58
34983;BME280;21187;50.976;13.720;2024-01-16T05:48:26;97082.84;;;2.55;55.95
34983;BME280;21187;50.976;13.720;2024-01-16T05:53:28;97101.88;;;2.53;55.65
34983;BME280;21187;50.976;13.720;2024-01-16T05:58:30;97097.34;;;2.54;55.36
34983;BME280;21187;50.976;13.720;2024-01-16T06:03:37;97107.13;;;2.49;55.72
34983;BME280;21187;50.976;13.720;2024-01-16T06:08:39;97119.75;;;2.40;55.67
34983;BME280;21187;50.976;13.720;2024-01-16T06:13:41;97138.78;;;2.30;57.42
34983;BME280;21187;50.976;13.720;2024-01-16T06:18:43;97131.78;;;2.16;58.28
34983;BME280;21187;50.976;13.720;2024-01-16T06:23:47;97138.06;;;2.03;59.08
34983;BME280;21187;50.976;13.720;2024-01-16T06:28:49;97137.16;;;1.99;60.02
34983;BME280;21187;50.976;13.720;2024-01-16T06:33:51;97133.53;;;2.04;60.43
34983;BME280;21187;50.976;13.720;2024-01-16T06:38:54;97155.06;;;2.07;60.61
34983;BME280;21187;50.976;13.720;2024-01-16T06:43:56;97151.75;;;2.10;60.46
34983;BME280;21187;50.976;13.720;2024-01-16T06:48:57;97153.59;;;2.10;59.94
34983;BME280;21187;50.976;13.720;2024-01-16T06:54:00;97162.59;;;2.05;60.22
34983;BME280;21187;50.976;13.720;2024-01-16T06:59:02;97167.66;;;1.98;60.22
34983;BME280;21187;50.976;13.720;2024-01-16T07:04:04;97184.13;;;2.00;60.35
34983;BME280;21187;50.976;13.720;2024-01-16T07:09:07;97187.09;;;2.07;59.67
34983;BME280;21187;50.976;13.720;2024-01-16T07:14:12;97203.41;;;2.14;59.18
34983;BME280;21187;50.976;13.720;2024-01-16T07:19:14;97214.38;;;2.22;58.57
34983;BME280;21187;50.976;13.720;2024-01-16T07:24:16;97221.31;;;2.23;57.66
34983;BME280;21187;50.976;13.720;2024-01-16T07:29:19;97239.22;;;2.22;56.67
34983;BME280;21187;50.976;13.720;2024-01-16T07:34:21;97231.38;;;2.26;55.88
34983;BME280;21187;50.976;13.720;2024-01-16T07:39:24;97237.34;;;2.23;55.64
34983;BME280;21187;50.976;13.720;2024-01-16T07:44:26;97250.56;;;2.19;55.02
34983;BME280;21187;50.976;13.720;2024-01-16T07:49:28;97270.47;;;2.22;55.62
34983;BME280;21187;50.976;13.720;2024-01-16T07:54:30;97270.97;;;2.24;55.17
34983;BME280;21187;50.976;13.720;2024-01-16T07:59:32;97279.47;;;2.26;54.47
34983;BME280;21187;50.976;13.720;2024-01-16T08:04:35;97279.13;;;2.19;54.04
34983;BME280;21187;50.976;13.720;2024-01-16T08:09:37;97286.84;;;2.20;54.19
34983;BME280;21187;50.976;13.720;2024-01-16T08:14:39;97296.41;;;2.30;53.88
34983;BME280;21187;50.976;13.720;2024-01-16T08:19:41;97292.94;;;2.38;53.39
34983;BME280;21187;50.976;13.720;2024-01-16T08:24:43;97298.78;;;2.40;52.96
34983;BME280;21187;50.976;13.720;2024-01-16T08:29:45;97297.78;;;2.54;53.36
34983;BME280;21187;50.976;13.720;2024-01-16T08:34:47;97310.19;;;2.58;53.18
34983;BME280;21187;50.976;13.720;2024-01-16T08:39:49;97307.38;;;2.55;53.26
34983;BME280;21187;50.976;13.720;2024-01-16T08:44:51;97316.84;;;2.43;53.10
34983;BME280;21187;50.976;13.720;2024-01-16T08:49:52;97320.28;;;2.44;52.58
34983;BME280;21187;50.976;13.720;2024-01-16T08:54:54;97323.44;;;2.46;52.85
34983;BME280;21187;50.976;13.720;2024-01-16T08:59:57;97343.06;;;2.50;52.45
34983;BME280;21187;50.976;13.720;2024-01-16T09:04:59;97352.34;;;2.53;52.62
34983;BME280;21187;50.976;13.720;2024-01-16T09:10:01;97358.16;;;2.55;52.64
34983;BME280;21187;50.976;13.720;2024-01-16T09:15:03;97357.53;;;2.58;52.92
34983;BME280;21187;50.976;13.720;2024-01-16T09:20:07;97347.63;;;2.58;52.04
34983;BME280;21187;50.976;13.720;2024-01-16T09:25:09;97359.88;;;2.50;52.38
34983;BME280;21187;50.976;13.720;2024-01-16T09:30:11;97369.00;;;2.58;52.53
34983;BME280;21187;50.976;13.720;2024-01-16T09:35:14;97350.28;;;2.67;52.15
34983;BME280;21187;50.976;13.720;2024-01-16T09:40:16;97361.53;;;2.90;52.13
34983;BME280;21187;50.976;13.720;2024-01-16T09:45:22;97359.78;;;3.03;52.16
34983;BME280;21187;50.976;13.720;2024-01-16T09:50:24;97362.72;;;3.19;51.71
34983;BME280;21187;50.976;13.720;2024-01-16T09:55:26;97351.00;;;3.32;51.14
34983;BME280;21187;50.976;13.720;2024-01-16T10:00:28;97343.97;;;3.28;50.81
34983;BME280;21187;50.976;13.720;2024-01-16T10:05:31;97352.25;;;3.35;51.25
34983;BME280;21187;50.976;13.720;2024-01-16T10:10:34;97342.78;;;3.38;50.73
34983;BME280;21187;50.976;13.720;2024-01-16T10:15:50;97353.66;;;3.41;50.60
34983;BME280;21187;50.976;13.720;2024-01-16T10:20:53;97356.00;;;3.43;50.09
34983;BME280;21187;50.976;13.720;2024-01-16T10:26:10;97357.25;;;3.45;49.56
34983;BME280;21187;50.976;13.720;2024-01-16T10:31:13;97360.47;;;3.60;49.68
34983;BME280;21187;50.976;13.720;2024-01-16T10:36:18;97365.22;;;3.63;48.92
34983;BME280;21187;50.976;13.720;2024-01-16T10:41:23;97370.25;;;3.64;49.39
34983;BME280;21187;50.976;13.720;2024-01-16T10:46:28;97367.75;;;3.59;48.93
34983;BME280;21187;50.976;13.720;2024-01-16T10:51:31;97354.38;;;3.50;48.76
34983;BME280;21187;50.976;13.720;2024-01-16T10:56:33;97354.88;;;3.53;48.58
34983;BME280;21187;50.976;13.720;2024-01-16T11:01:36;97360.84;;;3.49;48.64
34983;BME280;21187;50.976;13.720;2024-01-16T11:06:40;97357.56;;;3.44;48.38
34983;BME280;21187;50.976;13.720;2024-01-16T11:11:46;97353.47;;;3.46;48.84
34983;BME280;21187;50.976;13.720;2024-01-16T11:16:49;97355.03;;;3.47;48.07
34983;BME280;21187;50.976;13.720;2024-01-16T11:21:52;97365.28;;;3.45;48.23
34983;BME280;21187;50.976;13.720;2024-01-16T11:26:55;97359.31;;;3.48;48.57
34983;BME280;21187;50.976;13.720;2024-01-16T11:31:58;97367.13;;;3.54;48.41
34983;BME280;21187;50.976;13.720;2024-01-16T11:37:31;97359.09;;;3.54;48.15
34983;BME280;21187;50.976;13.720;2024-01-16T11:42:35;97356.41;;;3.54;48.18
34983;BME280;21187;50.976;13.720;2024-01-16T11:47:44;97368.50;;;3.60;48.14
34983;BME280;21187;50.976;13.720;2024-01-16T11:52:46;97354.16;;;3.64;48.09
34983;BME280;21187;50.976;13.720;2024-01-16T11:58:21;97347.97;;;3.73;48.12
34983;BME280;21187;50.976;13.720;2024-01-16T12:03:28;97353.47;;;3.76;47.71
34983;BME280;21187;50.976;13.720;2024-01-16T12:08:36;97362.06;;;3.61;47.21
34983;BME280;21187;50.976;13.720;2024-01-16T12:13:41;97354.75;;;3.70;47.54
34983;BME280;21187;50.976;13.720;2024-01-16T12:18:43;97363.06;;;3.77;47.41
34983;BME280;21187;50.976;13.720;2024-01-16T12:23:50;97355.31;;;3.85;47.42
34983;BME280;21187;50.976;13.720;2024-01-16T12:29:06;97349.66;;;3.77;46.82
34983;BME280;21187;50.976;13.720;2024-01-16T12:34:08;97346.91;;;3.65;47.03
34983;BME280;21187;50.976;13.720;2024-01-16T12:39:11;97351.84;;;3.54;47.24
34983;BME280;21187;50.976;13.720;2024-01-16T12:44:14;97359.59;;;3.47;46.91
34983;BME280;21187;50.976;13.720;2024-01-16T12:49:18;97347.28;;;3.55;47.77
34983;BME280;21187;50.976;13.720;2024-01-16T12:54:21;97339.34;;;3.67;46.87
34983;BME280;21187;50.976;13.720;2024-01-16T12:59:29;97341.44;;;3.82;47.23
34983;BME280;21187;50.976;13.720;2024-01-16T13:04:31;97330.63;;;4.21;47.03
34983;BME280;21187;50.976;13.720;2024-01-16T13:09:33;97340.81;;;5.20;45.90
34983;BME280;21187;50.976;13.720;2024-01-16T13:14:35;97345.28;;;5.03;44.72
34983;BME280;21187;50.976;13.720;2024-01-16T13:19:39;97336.94;;;4.71;45.41
34983;BME280;21187;50.976;13.720;2024-01-16T13:24:41;97346.81;;;4.92;45.47
34983;BME280;21187;50.976;13.720;2024-01-16T13:29:56;97337.72;;;4.72;44.99
34983;BME280;21187;50.976;13.720;2024-01-16T13:34:58;97335.56;;;4.31;45.83
34983;BME280;21187;50.976;13.720;2024-01-16T13:40:00;97331.53;;;4.04;45.81
34983;BME280;21187;50.976;13.720;2024-01-16T13:45:02;97335.69;;;3.93;46.30
34983;BME280;21187;50.976;13.720;2024-01-16T13:50:06;97342.47;;;4.54;46.45
34983;BME280;21187;50.976;13.720;2024-01-16T13:55:09;97335.78;;;5.55;44.57
34983;BME280;21187;50.976;13.720;2024-01-16T14:00:13;97337.69;;;5.42;44.13
34983;BME280;21187;50.976;13.720;2024-01-16T14:05:17;97336.13;;;5.16;44.92
34983;BME280;21187;50.976;13.720;2024-01-16T14:10:23;97337.22;;;5.03;44.27
34983;BME280;21187;50.976;13.720;2024-01-16T14:15:26;97334.78;;;5.23;43.36
34983;BME280;21187;50.976;13.720;2024-01-16T14:20:28;97334.06;;;4.89;43.91
34983;BME280;21187;50.976;13.720;2024-01-16T14:25:30;97337.22;;;4.57;44.21
34983;BME280;21187;50.976;13.720;2024-01-16T14:30:34;97328.56;;;4.39;44.71
34983;BME280;21187;50.976;13.720;2024-01-16T14:35:37;97328.03;;;4.25;44.50
34983;BME280;21187;50.976;13.720;2024-01-16T14:40:39;97335.56;;;4.10;44.62
34983;BME280;21187;50.976;13.720;2024-01-16T14:45:42;97332.50;;;3.99;44.70
34983;BME280;21187;50.976;13.720;2024-01-16T14:50:44;97322.50;;;3.88;45.71
34983;BME280;21187;50.976;13.720;2024-01-16T14:55:47;97339.91;;;3.81;45.50
34983;BME280;21187;50.976;13.720;2024-01-16T15:00:50;97327.00;;;3.75;45.72
34983;BME280;21187;50.976;13.720;2024-01-16T15:05:53;97335.69;;;3.72;46.17
34983;BME280;21187;50.976;13.720;2024-01-16T15:10:57;97328.94;;;3.65;45.77
34983;BME280;21187;50.976;13.720;2024-01-16T15:16:01;97337.81;;;3.57;46.74
34983;BME280;21187;50.976;13.720;2024-01-16T15:21:03;97348.84;;;3.56;46.21
34983;BME280;21187;50.976;13.720;2024-01-16T15:26:06;97348.59;;;3.48;46.19
34983;BME280;21187;50.976;13.720;2024-01-16T15:31:08;97339.44;;;3.49;45.96
34983;BME280;21187;50.976;13.720;2024-01-16T15:36:10;97347.53;;;3.41;46.27
34983;BME280;21187;50.976;13.720;2024-01-16T15:41:12;97346.72;;;3.40;46.90
34983;BME280;21187;50.976;13.720;2024-01-16T15:46:14;97343.31;;;3.31;47.01
34983;BME280;21187;50.976;13.720;2024-01-16T15:51:18;97344.59;;;3.25;46.86
34983;BME280;21187;50.976;13.720;2024-01-16T15:56:20;97338.97;;;3.17;47.20
34983;BME280;21187;50.976;13.720;2024-01-16T16:01:22;97345.22;;;3.22;47.64
34983;BME280;21187;50.976;13.720;2024-01-16T16:06:24;97349.31;;;3.28;47.59
34983;BME280;21187;50.976;13.720;2024-01-16T16:11:27;97351.50;;;3.26;47.96
34983;BME280;21187;50.976;13.720;2024-01-16T16:16:30;97353.72;;;3.24;48.12
34983;BME280;21187;50.976;13.720;2024-01-16T16:21:32;97359.44;;;3.13;47.88
34983;BME280;21187;50.976;13.720;2024-01-16T16:26:37;97347.81;;;3.09;48.16
34983;BME280;21187;50.976;13.720;2024-01-16T16:31:40;97347.22;;;3.04;48.04
34983;BME280;21187;50.976;13.720;2024-01-16T16:36:43;97362.63;;;2.98;48.66
34983;BME280;21187;50.976;13.720;2024-01-16T16:41:45;97373.31;;;2.98;48.71
34983;BME280;21187;50.976;13.720;2024-01-16T16:46:48;97376.00;;;2.98;48.62
34983;BME280;21187;50.976;13.720;2024-01-16T16:51:50;97374.41;;;3.06;48.75
34983;BME280;21187;50.976;13.720;2024-01-16T16:56:53;97370.78;;;3.10;48.52
34983;BME280;21187;50.976;13.720;2024-01-16T17:01:56;97373.13;;;3.12;48.50
34983;BME280;21187;50.976;13.720;2024-01-16T17:06:58;97382.91;;;3.08;48.66
34983;BME280;21187;50.976;13.720;2024-01-16T17:12:01;97376.94;;;3.02;48.60
34983;BME280;21187;50.976;13.720;2024-01-16T17:17:03;97379.31;;;3.04;48.41
34983;BME280;21187;50.976;13.720;2024-01-16T17:22:05;97380.25;;;2.99;49.01
34983;BME280;21187;50.976;13.720;2024-01-16T17:27:08;97371.91;;;3.00;49.06
34983;BME280;21187;50.976;13.720;2024-01-16T17:32:10;97382.28;;;3.02;48.55
34983;BME280;21187;50.976;13.720;2024-01-16T17:37:12;97382.47;;;2.97;48.59
34983;BME280;21187;50.976;13.720;2024-01-16T17:42:14;97379.31;;;2.95;49.01
34983;BME280;21187;50.976;13.720;2024-01-16T17:47:16;97378.66;;;2.98;48.97
34983;BME280;21187;50.976;13.720;2024-01-16T17:52:20;97378.53;;;2.94;48.99
34983;BME280;21187;50.976;13.720;2024-01-16T17:57:23;97372.09;;;2.87;48.81
34983;BME280;21187;50.976;13.720;2024-01-16T18:02:25;97371.63;;;2.76;48.54
34983;BME280;21187;50.976;13.720;2024-01-16T18:07:27;97383.47;;;2.66;48.81
34983;BME280;21187;50.976;13.720;2024-01-16T18:12:30;97380.16;;;2.60;48.49
34983;BME280;21187;50.976;13.720;2024-01-16T18:17:34;97392.28;;;2.58;48.78
34983;BME280;21187;50.976;13.720;2024-01-16T18:22:39;97395.41;;;2.60;48.81
34983;BME280;21187;50.976;13.720;2024-01-16T18:27:42;97391.66;;;2.52;48.38
34983;BME280;21187;50.976;13.720;2024-01-16T18:32:45;97397.00;;;2.43;48.40
34983;BME280;21187;50.976;13.720;2024-01-16T18:37:48;97401.09;;;2.32;48.72
34983;BME280;21187;50.976;13.720;2024-01-16T18:42:54;97394.78;;;2.28;48.68
34983;BME280;21187;50.976;13.720;2024-01-16T18:47:56;97391.19;;;2.24;48.84
34983;BME280;21187;50.976;13.720;2024-01-16T18:53:01;97390.88;;;2.16;49.09
34983;BME280;21187;50.976;13.720;2024-01-16T18:58:03;97383.16;;;2.06;49.22
34983;BME280;21187;50.976;13.720;2024-01-16T19:03:06;97389.44;;;1.93;49.27
34983;BME280;21187;50.976;13.720;2024-01-16T19:08:09;97394.91;;;1.88;49.38
34983;BME280;21187;50.976;13.720;2024-01-16T19:13:12;97389.72;;;1.82;49.79
34983;BME280;21187;50.976;13.720;2024-01-16T19:18:16;97395.66;;;1.79;49.69
34983;BME280;21187;50.976;13.720;2024-01-16T19:23:18;97386.88;;;1.79;49.89
34983;BME280;21187;50.976;13.720;2024-01-16T19:28:22;97385.44;;;1.73;50.06
34983;BME280;21187;50.976;13.720;2024-01-16T19:33:25;97386.72;;;1.66;49.82
34983;BME280;21187;50.976;13.720;2024-01-16T19:38:29;97384.34;;;1.65;49.71
34983;BME280;21187;50.976;13.720;2024-01-16T19:43:31;97380.56;;;1.66;49.83
34983;BME280;21187;50.976;13.720;2024-01-16T19:48:33;97368.47;;;1.69;49.51
34983;BME280;21187;50.976;13.720;2024-01-16T19:53:41;97369.75;;;1.62;49.52
34983;BME280;21187;50.976;13.720;2024-01-16T19:58:43;97375.50;;;1.56;49.55
34983;BME280;21187;50.976;13.720;2024-01-16T20:03:48;97376.75;;;1.49;49.98
34983;BME280;21187;50.976;13.720;2024-01-16T20:08:51;97366.53;;;1.43;49.16
34983;BME280;21187;50.976;13.720;2024-01-16T20:13:59;97364.00;;;1.38;49.23
34983;BME280;21187;50.976;13.720;2024-01-16T20:19:01;97356.78;;;1.38;49.14
34983;BME280;21187;50.976;13.720;2024-01-16T20:24:04;97355.53;;;1.36;48.84
34983;BME280;21187;50.976;13.720;2024-01-16T20:29:09;97361.00;;;1.30;48.97
34983;BME280;21187;50.976;13.720;2024-01-16T20:34:12;97370.72;;;1.26;48.94
34983;BME280;21187;50.976;13.720;2024-01-16T20:39:15;97366.31;;;1.22;48.71
34983;BME280;21187;50.976;13.720;2024-01-16T20:44:17;97365.19;;;1.23;48.79
34983;BME280;21187;50.976;13.720;2024-01-16T20:49:22;97365.50;;;1.21;48.85
34983;BME280;21187;50.976;13.720;2024-01-16T20:54:24;97367.03;;;1.13;48.68
34983;BME280;21187;50.976;13.720;2024-01-16T20:59:26;97371.91;;;1.11;48.72
34983;BME280;21187;50.976;13.720;2024-01-16T21:04:29;97369.56;;;1.10;48.52
34983;BME280;21187;50.976;13.720;2024-01-16T21:09:31;97362.00;;;1.03;48.49
34983;BME280;21187;50.976;13.720;2024-01-16T21:14:33;97354.59;;;1.00;48.72
34983;BME280;21187;50.976;13.720;2024-01-16T21:19:35;97352.69;;;0.92;48.50
34983;BME280;21187;50.976;13.720;2024-01-16T21:24:37;97355.13;;;0.79;48.61
34983;BME280;21187;50.976;13.720;2024-01-16T21:29:40;97350.41;;;0.76;48.56
34983;BME280;21187;50.976;13.720;2024-01-16T21:34:46;97357.94;;;0.74;48.40
34983;BME280;21187;50.976;13.720;2024-01-16T21:39:49;97354.47;;;0.74;48.83
34983;BME280;21187;50.976;13.720;2024-01-16T21:44:51;97353.38;;;0.75;48.72
34983;BME280;21187;50.976;13.720;2024-01-16T21:49:54;97347.38;;;0.69;48.48
34983;BME280;21187;50.976;13.720;2024-01-16T21:54:57;97347.38;;;0.69;48.42
34983;BME280;21187;50.976;13.720;2024-01-16T22:00:03;97336.84;;;0.64;48.12
34983;BME280;21187;50.976;13.720;2024-01-16T22:05:07;97337.16;;;0.62;48.40
34983;BME280;21187;50.976;13.720;2024-01-16T22:10:09;97342.97;;;0.64;48.03
34983;BME280;21187;50.976;13.720;2024-01-16T22:15:11;97342.81;;;0.61;48.14
34983;BME280;21187;50.976;13.720;2024-01-16T22:20:15;97344.97;;;0.59;48.11
34983;BME280;21187;50.976;13.720;2024-01-16T22:25:18;97345.75;;;0.59;48.21
34983;BME280;21187;50.976;13.720;2024-01-16T22:30:20;97325.81;;;0.57;47.93
34983;BME280;21187;50.976;13.720;2024-01-16T22:35:22;97318.75;;;0.52;48.06
34983;BME280;21187;50.976;13.720;2024-01-16T22:40:26;97322.81;;;0.49;48.19
34983;BME280;21187;50.976;13.720;2024-01-16T22:45:28;97304.50;;;0.57;48.22
34983;BME280;21187;50.976;13.720;2024-01-16T22:50:30;97298.22;;;0.53;48.43
34983;BME280;21187;50.976;13.720;2024-01-16T22:55:33;97273.16;;;0.54;48.39
34983;BME280;21187;50.976;13.720;2024-01-16T23:00:35;97262.03;;;0.52;48.22
34983;BME280;21187;50.976;13.720;2024-01-16T23:05:41;97243.03;;;0.44;48.31
34983;BME280;21187;50.976;13.720;2024-01-16T23:10:46;97233.94;;;0.45;48.23
34983;BME280;21187;50.976;13.720;2024-01-16T23:15:51;97226.09;;;0.40;48.47
34983;BME280;21187;50.976;13.720;2024-01-16T23:20:53;97215.44;;;0.40;48.52
34983;BME280;21187;50.976;13.720;2024-01-16T23:25:55;97204.97;;;0.44;48.54
34983;BME280;21187;50.976;13.720;2024-01-16T23:30:57;97195.25;;;0.48;48.31
34983;BME280;21187;50.976;13.720;2024-01-16T23:36:03;97183.22;;;0.51;48.36
34983;BME280;21187;50.976;13.720;2024-01-16T23:41:08;97163.47;;;0.52;48.38
34983;BME280;21187;50.976;13.720;2024-01-16T23:46:11;97164.25;;;0.52;48.66
34983;BME280;21187;50.976;13.720;2024-01-16T23:51:13;97167.38;;;0.45;48.42
34983;BME280;21187;50.976;13.720;2024-01-16T23:56:15;97159.00;;;0.38;48.71
